createdAt,value
2023-05-07T00:00:10.455Z,11.52
2023-05-07T00:02:38.899Z,13.52
2023-05-07T00:05:06.835Z,13.98
2023-05-07T00:07:33.907Z,13.23
2023-05-07T00:10:00.804Z,14.05
2023-05-07T00:12:27.891Z,13.90
2023-05-07T00:14:54.835Z,14.30
2023-05-07T00:17:22.080Z,14.32
2023-05-07T00:19:49.227Z,14.90
2023-05-07T00:22:16.450Z,16.05
2023-05-07T00:24:43.445Z,16.58
2023-05-07T00:27:10.445Z,15.93
2023-05-07T00:29:37.722Z,17.70
2023-05-07T00:32:04.966Z,17.70
2023-05-07T00:34:32.031Z,16.98
2023-05-07T00:36:58.976Z,17.42
2023-05-07T00:39:26.083Z,17.83
2023-05-07T00:41:53.468Z,16.58
2023-05-07T00:44:20.504Z,17.38
2023-05-07T00:46:50.861Z,17.23
2023-05-07T00:49:19.341Z,17.55
2023-05-07T00:51:46.836Z,17.05
2023-05-07T00:54:14.935Z,14.95
2023-05-07T00:56:42.298Z,16.17
2023-05-07T00:59:09.497Z,16.45
2023-05-07T01:01:38.101Z,15.05
2023-05-07T01:04:05.318Z,14.95
2023-05-07T01:06:34.223Z,14.38
2023-05-07T01:09:02.926Z,13.63
2023-05-07T01:11:29.977Z,14.48
2023-05-07T01:13:59.701Z,15.73
2023-05-07T01:16:27.870Z,14.27
2023-05-07T01:18:54.789Z,14.60
2023-05-07T01:21:27.582Z,13.60
2023-05-07T01:23:58.691Z,13.82
2023-05-07T01:26:26.310Z,13.77
2023-05-07T01:28:53.312Z,14.82
2023-05-07T01:31:21.481Z,13.05
2023-05-07T01:33:50.968Z,13.77
2023-05-07T01:36:21.027Z,13.30
2023-05-07T01:38:48.845Z,13.25
2023-05-07T01:41:16.554Z,13.20
2023-05-07T01:43:44.341Z,14.88
2023-05-07T01:46:13.402Z,14.52
2023-05-07T01:48:40.889Z,14.55
2023-05-07T01:51:09.616Z,12.82
2023-05-07T01:53:38.177Z,13.02
2023-05-07T01:56:06.540Z,15.48
2023-05-07T01:58:34.893Z,15.43
2023-05-07T02:01:02.404Z,13.95
2023-05-07T02:03:30.659Z,14.23
2023-05-07T02:06:06.146Z,14.55
2023-05-07T02:08:36.103Z,15.85
2023-05-07T02:11:03.204Z,13.65
2023-05-07T02:13:33.864Z,13.27
2023-05-07T02:16:01.681Z,15.43
2023-05-07T02:18:28.928Z,13.85
2023-05-07T02:20:56.124Z,14.48
2023-05-07T02:23:23.140Z,13.93
2023-05-07T02:25:50.302Z,13.00
2023-05-07T02:28:18.294Z,13.80
2023-05-07T02:30:55.541Z,13.00
2023-05-07T02:33:22.672Z,13.00
2023-05-07T02:35:49.557Z,11.43
2023-05-07T02:38:16.893Z,12.30
2023-05-07T02:40:44.713Z,11.23
2023-05-07T02:43:11.654Z,12.95
2023-05-07T02:45:41.717Z,11.43
2023-05-07T02:48:09.189Z,10.65
2023-05-07T02:50:36.275Z,10.60
2023-05-07T02:53:03.308Z,10.57
2023-05-07T02:55:30.736Z,10.02
2023-05-07T02:57:57.694Z,10.63
2023-05-07T03:00:25.453Z,9.57
2023-05-07T03:03:03.442Z,10.25
2023-05-07T03:05:30.395Z,9.50
2023-05-07T03:07:57.284Z,8.07
2023-05-07T03:10:24.325Z,10.05
2023-05-07T03:12:51.317Z,9.82
2023-05-07T03:15:18.789Z,9.60
2023-05-07T03:17:45.748Z,8.73
2023-05-07T03:20:13.230Z,9.77
2023-05-07T03:22:41.859Z,10.60
2023-05-07T03:25:09.779Z,10.05
2023-05-07T03:27:36.697Z,11.48
2023-05-07T03:30:05.063Z,11.32
2023-05-07T03:32:32.044Z,12.15
2023-05-07T03:34:58.957Z,11.80
2023-05-07T03:37:26.218Z,11.95
2023-05-07T03:39:53.313Z,13.35
2023-05-07T03:42:21.404Z,13.50
2023-05-07T03:44:51.410Z,12.68
2023-05-07T03:47:19.063Z,13.23
2023-05-07T03:49:47.675Z,13.23
2023-05-07T03:52:15.516Z,12.13
2023-05-07T03:54:42.981Z,11.68
2023-05-07T03:57:12.634Z,11.88
2023-05-07T03:59:40.831Z,14.52
2023-05-07T04:02:09.121Z,12.80
2023-05-07T04:04:36.265Z,14.05
2023-05-07T04:07:04.139Z,13.98
2023-05-07T04:09:35.490Z,12.88
2023-05-07T04:12:02.625Z,13.65
2023-05-07T04:14:33.094Z,11.98
2023-05-07T04:17:01.122Z,11.82
2023-05-07T04:19:28.634Z,12.07
2023-05-07T04:21:56.127Z,11.57
2023-05-07T04:24:23.337Z,10.93
2023-05-07T04:26:52.212Z,12.15
2023-05-07T04:29:22.081Z,11.65
2023-05-07T04:31:50.830Z,12.45
2023-05-07T04:34:18.410Z,12.80
2023-05-07T04:36:45.408Z,12.85
2023-05-07T04:39:14.175Z,12.93
2023-05-07T04:41:44.347Z,11.10
2023-05-07T04:44:11.833Z,12.40
2023-05-07T04:46:40.335Z,12.35
2023-05-07T04:49:07.185Z,11.32
2023-05-07T04:51:34.971Z,12.77
2023-05-07T04:54:01.959Z,10.25
2023-05-07T04:56:31.159Z,11.30
2023-05-07T04:58:59.527Z,10.60
2023-05-07T05:01:26.677Z,10.70
2023-05-07T05:03:53.646Z,10.60
2023-05-07T05:06:21.303Z,9.50
2023-05-07T05:08:48.214Z,10.57
2023-05-07T05:11:15.917Z,9.07
2023-05-07T05:13:43.447Z,10.25
2023-05-07T05:16:15.356Z,10.82
2023-05-07T05:18:42.748Z,10.10
2023-05-07T05:21:12.094Z,10.63
2023-05-07T05:23:40.603Z,10.07
2023-05-07T05:26:07.562Z,11.35
2023-05-07T05:28:35.232Z,10.25
2023-05-07T05:31:03.416Z,10.40
2023-05-07T05:33:33.956Z,10.60
2023-05-07T05:36:05.319Z,10.63
2023-05-07T05:38:33.627Z,11.35
2023-05-07T05:41:01.520Z,11.32
2023-05-07T05:43:29.875Z,11.05
2023-05-07T05:45:58.661Z,13.30
2023-05-07T05:48:26.435Z,15.63
2023-05-07T05:50:53.684Z,13.43
2023-05-07T05:53:20.834Z,33.63
2023-05-07T05:55:47.945Z,12.43
2023-05-07T05:58:16.286Z,9.50
2023-05-07T06:00:49.823Z,9.90
2023-05-07T06:03:17.546Z,8.63
2023-05-07T06:05:44.689Z,8.68
2023-05-07T06:08:12.235Z,8.43
2023-05-07T06:11:07.025Z,7.18
2023-05-07T06:14:18.048Z,7.75
2023-05-07T06:16:45.829Z,7.28
2023-05-07T06:19:12.930Z,7.57
2023-05-07T06:21:41.390Z,7.25
2023-05-07T06:24:08.903Z,7.07
2023-05-07T06:26:37.902Z,7.65
2023-05-07T08:05:14.612Z,3.55
2023-05-07T08:07:41.836Z,3.55
2023-05-07T08:10:10.129Z,3.10
2023-05-07T08:12:37.541Z,3.00
2023-05-07T08:15:05.016Z,2.70
2023-05-07T08:17:32.384Z,2.70
2023-05-07T08:19:59.587Z,3.08
2023-05-07T08:22:26.690Z,2.92
2023-05-07T08:24:54.677Z,2.65
2023-05-07T08:27:21.813Z,3.40
2023-05-07T08:29:49.808Z,2.55
2023-05-07T08:32:18.814Z,2.40
2023-05-07T08:34:45.805Z,3.63
2023-05-07T08:37:12.745Z,3.30
2023-05-07T08:39:39.897Z,3.28
2023-05-07T08:42:17.832Z,3.40
2023-05-07T08:44:50.130Z,3.55
2023-05-07T08:50:03.494Z,4.63
2023-05-07T08:52:30.498Z,4.60
2023-05-07T08:54:59.748Z,4.22
2023-05-07T08:57:26.848Z,4.53
2023-05-07T08:59:54.572Z,4.80
2023-05-07T09:02:21.923Z,5.30
2023-05-07T09:04:49.216Z,4.72
2023-05-07T09:07:21.213Z,4.38
2023-05-07T09:09:48.684Z,4.90
2023-05-07T09:12:16.128Z,4.50
2023-05-07T09:14:43.342Z,5.40
2023-05-07T09:17:10.641Z,5.20
2023-05-07T09:19:38.029Z,4.82
2023-05-07T09:22:10.365Z,4.28
2023-05-07T09:24:57.032Z,3.83
2023-05-07T09:27:27.334Z,4.80
2023-05-07T09:29:56.296Z,4.22
2023-05-07T09:32:23.362Z,4.57
2023-05-07T09:34:50.347Z,4.00
2023-05-07T09:37:20.634Z,4.60
2023-05-07T09:39:50.614Z,4.82
2023-05-07T09:42:27.589Z,4.68
2023-05-07T09:44:57.568Z,4.53
2023-05-07T09:47:38.228Z,4.78
2023-05-07T09:50:10.005Z,4.68
2023-05-07T09:52:39.615Z,4.85
2023-05-07T09:55:08.265Z,5.10
2023-05-07T09:57:37.026Z,5.93
2023-05-07T10:00:09.851Z,5.43
2023-05-07T10:02:53.159Z,4.85
2023-05-07T10:05:28.313Z,6.10
2023-05-07T10:07:58.944Z,5.65
2023-05-07T10:10:27.189Z,5.82
2023-05-07T10:12:56.357Z,5.68
2023-05-07T10:15:31.527Z,5.82
2023-05-07T10:18:01.458Z,4.97
2023-05-07T10:20:30.532Z,5.80
2023-05-07T10:22:59.482Z,4.72
2023-05-07T10:25:34.569Z,4.57
2023-05-07T10:28:11.186Z,4.68
2023-05-07T10:31:02.360Z,5.10
2023-05-07T10:33:38.016Z,5.47
2023-05-07T10:36:08.874Z,4.95
2023-05-07T10:38:36.453Z,5.57
2023-05-07T10:41:06.648Z,5.18
2023-05-07T10:43:42.152Z,5.03
2023-05-07T10:46:17.876Z,4.80
2023-05-07T10:49:04.334Z,4.97
2023-05-07T10:52:19.051Z,4.60
2023-05-07T10:55:22.530Z,3.97
2023-05-07T10:58:32.373Z,4.38
2023-05-07T11:02:16.577Z,3.75
2023-05-07T11:05:22.117Z,4.40
2023-05-07T11:08:10.628Z,5.90
2023-05-07T11:10:52.510Z,4.97
2023-05-07T11:13:51.293Z,4.63
2023-05-07T11:16:29.138Z,4.13
2023-05-07T11:19:15.658Z,4.15
2023-05-07T11:21:47.900Z,3.83
2023-05-07T11:24:27.776Z,3.80
2023-05-07T11:27:04.914Z,4.25
2023-05-07T11:29:33.141Z,3.80
2023-05-07T11:32:07.383Z,4.23
2023-05-07T11:34:41.561Z,4.50
2023-05-07T11:37:10.302Z,4.45
2023-05-07T11:39:50.703Z,4.47
2023-05-07T11:42:32.129Z,3.90
2023-05-07T11:44:59.832Z,4.30
2023-05-07T11:47:30.631Z,4.38
2023-05-07T11:49:58.056Z,3.92
2023-05-07T11:52:26.136Z,4.72
2023-05-07T11:54:58.887Z,4.00
2023-05-07T11:57:27.025Z,4.63
2023-05-07T11:59:55.554Z,4.15
2023-05-07T12:02:23.204Z,4.20
2023-05-07T12:04:50.588Z,4.50
2023-05-07T12:07:19.418Z,4.68
2023-05-07T12:09:48.564Z,5.00
2023-05-07T12:12:19.734Z,4.53
2023-05-07T12:14:50.028Z,4.32
2023-05-07T12:17:18.058Z,4.88
2023-05-07T12:19:47.158Z,4.32
2023-05-07T12:22:15.202Z,4.15
2023-05-07T12:24:49.289Z,4.43
2023-05-07T12:27:17.853Z,4.25
2023-05-07T12:29:49.736Z,4.10
2023-05-07T12:32:18.505Z,4.57
2023-05-07T12:34:46.902Z,4.35
2023-05-07T12:37:14.772Z,4.40
2023-05-07T12:40:11.061Z,3.88
2023-05-07T12:42:41.573Z,4.00
2023-05-07T12:45:14.059Z,4.00
2023-05-07T12:47:46.183Z,4.22
2023-05-07T12:50:15.277Z,4.40
2023-05-07T12:52:43.995Z,3.83
2023-05-07T12:55:14.516Z,3.97
2023-05-07T12:57:49.612Z,3.75
2023-05-07T13:00:17.241Z,3.75
2023-05-07T13:02:46.483Z,3.88
2023-05-07T13:05:14.613Z,3.83
2023-05-07T13:07:53.108Z,3.17
2023-05-07T13:10:20.566Z,3.78
2023-05-07T13:12:48.517Z,3.50
2023-05-07T13:15:16.164Z,2.88
2023-05-07T13:17:43.557Z,3.28
2023-05-07T13:20:14.028Z,3.08
2023-05-07T13:22:41.808Z,3.17
2023-05-07T13:25:09.920Z,3.20
2023-05-07T13:27:37.886Z,3.70
2023-05-07T13:30:07.727Z,3.45
2023-05-07T13:32:35.452Z,2.97
2023-05-07T13:35:03.255Z,3.50
2023-05-07T13:37:30.652Z,3.15
2023-05-07T13:39:58.666Z,3.50
2023-05-07T13:42:26.230Z,3.10
2023-05-07T13:44:53.715Z,3.35
2023-05-07T13:47:22.551Z,3.50
2023-05-07T13:49:50.753Z,3.53
2023-05-07T13:52:18.513Z,3.40
2023-05-07T13:54:45.988Z,3.30
2023-05-07T13:57:13.328Z,3.83
2023-05-07T13:59:41.320Z,3.20
2023-05-07T14:02:10.018Z,3.08
2023-05-07T14:04:38.608Z,2.80
2023-05-07T14:07:06.043Z,2.72
2023-05-07T14:09:33.596Z,2.92
2023-05-07T14:12:01.150Z,2.78
2023-05-07T14:14:28.749Z,2.42
2023-05-07T14:16:56.206Z,3.17
2023-05-07T14:19:26.397Z,2.83
2023-05-07T14:21:53.786Z,2.70
2023-05-07T14:24:34.423Z,2.20
2023-05-07T14:27:02.449Z,2.50
2023-05-07T14:29:29.862Z,2.50
2023-05-07T14:31:57.379Z,2.25
2023-05-07T14:34:25.081Z,2.20
2023-05-07T14:36:53.396Z,2.38
2023-05-07T14:39:21.315Z,3.35
2023-05-07T14:41:49.106Z,2.28
2023-05-07T14:44:16.450Z,2.20
2023-05-07T14:46:43.858Z,2.63
2023-05-07T14:49:17.849Z,2.67
2023-05-07T14:51:46.387Z,3.03
2023-05-07T14:54:14.833Z,2.88
2023-05-07T14:56:43.176Z,2.55
2023-05-07T14:59:11.366Z,2.95
2023-05-07T15:01:39.063Z,2.42
2023-05-07T15:04:06.698Z,3.13
2023-05-07T15:06:34.414Z,3.10
2023-05-07T15:09:01.792Z,2.67
2023-05-07T15:11:29.136Z,2.88
2023-05-07T15:13:56.630Z,3.05
2023-05-07T15:16:24.019Z,2.92
2023-05-07T15:18:51.344Z,3.17
2023-05-07T15:21:18.704Z,3.25
2023-05-07T15:23:46.377Z,3.78
2023-05-07T15:26:13.684Z,3.33
2023-05-07T15:28:41.351Z,3.45
2023-05-07T15:31:09.063Z,3.88
2023-05-07T15:33:36.489Z,3.60
2023-05-07T15:36:04.235Z,3.92
2023-05-07T15:38:31.478Z,3.45
2023-05-07T15:40:58.748Z,4.05
2023-05-07T15:43:26.316Z,3.47
2023-05-07T15:45:54.333Z,4.50
2023-05-07T15:48:21.458Z,4.65
2023-05-07T15:50:48.831Z,4.07
2023-05-07T15:53:16.224Z,4.18
2023-05-07T15:55:44.480Z,4.38
2023-05-07T15:58:12.683Z,3.90
2023-05-07T16:00:41.800Z,4.18
2023-05-07T16:03:09.364Z,3.58
2023-05-07T16:05:37.508Z,3.80
2023-05-07T16:08:05.207Z,4.30
2023-05-07T16:10:32.628Z,4.15
2023-05-07T16:12:59.924Z,3.25
2023-05-07T16:15:27.259Z,3.65
2023-05-07T16:17:58.161Z,3.80
2023-05-07T16:20:32.752Z,4.10
2023-05-07T16:23:00.058Z,4.07
2023-05-07T16:25:27.443Z,4.53
2023-05-07T16:27:55.540Z,4.32
2023-05-07T16:30:23.131Z,4.32
2023-05-07T16:32:50.532Z,4.22
2023-05-07T16:35:18.137Z,3.92
2023-05-07T16:37:45.487Z,4.43
2023-05-07T16:40:13.064Z,4.15
2023-05-07T16:42:40.356Z,4.35
2023-05-07T16:45:08.849Z,4.30
2023-05-07T16:47:36.223Z,4.15
2023-05-07T16:50:05.702Z,3.67
2023-05-07T16:52:33.562Z,4.43
2023-05-07T16:55:01.594Z,3.65
2023-05-07T16:57:30.716Z,4.00
2023-05-07T16:59:59.000Z,4.47
2023-05-07T17:02:26.405Z,4.05
2023-05-07T17:04:54.241Z,4.30
2023-05-07T17:07:21.623Z,4.25
2023-05-07T17:09:51.472Z,3.70
2023-05-07T17:12:18.842Z,4.22
2023-05-07T17:14:46.284Z,4.13
2023-05-07T17:17:13.751Z,4.60
2023-05-07T17:19:41.244Z,4.68
2023-05-07T17:22:08.799Z,4.85
2023-05-07T17:24:36.589Z,4.57
2023-05-07T17:27:04.097Z,4.40
2023-05-07T17:29:31.489Z,4.63
2023-05-07T17:31:58.913Z,4.55
2023-05-07T17:34:26.672Z,4.38
2023-05-07T17:36:54.710Z,4.60
2023-05-07T17:39:22.082Z,4.40
2023-05-07T17:41:49.596Z,4.88
2023-05-07T17:44:17.498Z,4.30
2023-05-07T17:46:44.866Z,4.22
2023-05-07T17:49:12.175Z,4.18
2023-05-07T17:51:52.568Z,3.85
2023-05-07T17:54:21.854Z,4.00
2023-05-07T17:56:49.181Z,4.50
2023-05-07T17:59:16.893Z,4.30
2023-05-07T18:01:44.686Z,3.95
2023-05-07T18:04:12.196Z,3.92
2023-05-07T18:06:41.743Z,3.63
2023-05-07T18:09:10.082Z,4.07
2023-05-07T18:11:37.916Z,5.05
2023-05-07T18:14:06.093Z,4.15
2023-05-07T18:16:34.121Z,4.22
2023-05-07T18:19:02.349Z,4.28
2023-05-07T18:21:29.690Z,4.57
2023-05-07T18:23:56.819Z,4.90
2023-05-07T18:26:24.004Z,4.82
2023-05-07T18:28:51.132Z,4.68
2023-05-07T18:31:18.404Z,4.78
2023-05-07T18:33:45.502Z,5.18
2023-05-07T18:36:12.697Z,5.68
2023-05-07T18:38:39.825Z,5.25
2023-05-07T18:41:07.121Z,5.00
2023-05-07T18:43:34.452Z,4.90
2023-05-07T18:46:01.958Z,5.80
2023-05-07T18:48:29.475Z,5.18
2023-05-07T18:50:57.153Z,5.32
2023-05-07T18:53:29.160Z,5.60
2023-05-07T18:55:56.532Z,5.35
2023-05-07T18:58:24.206Z,5.88
2023-05-07T19:00:51.898Z,5.03
2023-05-07T19:03:19.224Z,5.07
2023-05-07T19:05:46.627Z,5.30
2023-05-07T19:08:15.327Z,5.65
2023-05-07T19:10:42.532Z,5.40
2023-05-07T19:13:09.882Z,6.00
2023-05-07T19:15:37.740Z,6.60
2023-05-07T19:18:05.386Z,6.45
2023-05-07T19:20:32.637Z,6.75
2023-05-07T19:23:00.399Z,6.28
2023-05-07T19:25:27.732Z,6.38
2023-05-07T19:27:58.904Z,5.85
2023-05-07T19:30:26.770Z,6.35
2023-05-07T19:32:54.485Z,5.68
2023-05-07T19:35:22.285Z,5.30
2023-05-07T19:37:50.180Z,6.25
2023-05-07T19:40:20.244Z,6.40
2023-05-07T19:42:47.998Z,6.40
2023-05-07T19:45:30.230Z,6.05
2023-05-07T19:48:00.564Z,6.07
2023-05-07T19:50:28.431Z,5.55
2023-05-07T19:52:56.775Z,5.97
2023-05-07T19:55:24.454Z,5.68
2023-05-07T19:57:53.094Z,6.95
2023-05-07T20:00:21.959Z,5.32
2023-05-07T20:02:51.309Z,6.47
2023-05-07T20:05:19.221Z,6.22
2023-05-07T20:07:46.739Z,5.82
2023-05-07T20:10:14.507Z,6.35
2023-05-07T20:12:42.185Z,5.82
2023-05-07T20:15:13.081Z,5.63
2023-05-07T20:17:40.557Z,6.20
2023-05-07T20:20:09.312Z,5.95
2023-05-07T20:22:36.914Z,5.85
2023-05-07T20:25:06.270Z,5.80
2023-05-07T20:27:35.199Z,5.80
2023-05-07T20:30:02.892Z,5.60
2023-05-07T20:32:30.352Z,5.43
2023-05-07T20:34:57.796Z,5.65
2023-05-07T20:37:26.268Z,5.63
2023-05-07T20:39:53.802Z,5.65
2023-05-07T20:42:21.308Z,5.70
2023-05-07T20:44:48.750Z,5.88
2023-05-07T20:47:16.239Z,5.45
2023-05-07T20:49:43.655Z,5.32
2023-05-07T20:52:11.143Z,5.15
2023-05-07T20:54:40.748Z,5.15
2023-05-07T20:57:08.088Z,4.75
2023-05-07T20:59:35.346Z,4.68
2023-05-07T21:02:03.421Z,5.00
2023-05-07T21:04:31.203Z,5.22
2023-05-07T21:06:59.470Z,4.95
2023-05-07T21:09:27.205Z,5.15
2023-05-07T21:11:54.919Z,4.72
2023-05-07T21:14:22.307Z,4.63
2023-05-07T21:16:49.692Z,3.85
2023-05-07T21:19:17.012Z,4.97
2023-05-07T21:21:44.393Z,4.43
2023-05-07T21:24:12.212Z,4.28
2023-05-07T21:26:42.513Z,4.68
2023-05-07T21:29:09.859Z,4.70
2023-05-07T21:31:37.232Z,4.10
2023-05-07T21:34:07.639Z,4.40
2023-05-07T21:36:35.328Z,4.07
2023-05-07T21:39:02.586Z,4.50
2023-05-07T21:41:29.890Z,4.63
2023-05-07T21:43:57.165Z,4.20
2023-05-07T21:46:24.467Z,4.50
2023-05-07T21:48:51.852Z,4.65
2023-05-07T21:51:19.132Z,4.35
2023-05-07T21:53:46.426Z,4.22
2023-05-07T21:56:13.779Z,4.22
2023-05-07T21:58:41.051Z,4.50
2023-05-07T22:01:12.270Z,4.35
2023-05-07T22:03:40.482Z,4.85
2023-05-07T22:06:08.024Z,5.00
2023-05-07T22:08:35.538Z,4.45
2023-05-07T22:11:03.350Z,4.20
2023-05-07T22:13:31.079Z,4.82
2023-05-07T22:15:58.855Z,4.88
2023-05-07T22:18:26.810Z,5.30
2023-05-07T22:20:54.371Z,4.22
2023-05-07T22:23:21.760Z,4.10
2023-05-07T22:25:49.340Z,4.68
2023-05-07T22:28:16.706Z,4.80
2023-05-07T22:30:44.195Z,4.47
2023-05-07T22:33:11.515Z,4.63
2023-05-07T22:35:38.864Z,5.00
2023-05-07T22:38:06.259Z,4.53
2023-05-07T22:40:33.560Z,4.93
2023-05-07T22:43:00.886Z,4.53
2023-05-07T22:45:28.170Z,4.68
2023-05-07T22:47:56.667Z,4.72
2023-05-07T22:50:24.088Z,4.65
2023-05-07T22:52:51.385Z,4.85
2023-05-07T22:55:18.880Z,5.25
2023-05-07T22:57:46.171Z,4.82
2023-05-07T23:00:14.478Z,5.10
2023-05-07T23:02:42.032Z,5.22
2023-05-07T23:05:09.681Z,5.78
2023-05-07T23:07:37.306Z,4.57
2023-05-07T23:10:05.656Z,4.80
2023-05-07T23:12:32.987Z,5.28
2023-05-07T23:15:00.275Z,4.75
2023-05-07T23:17:27.878Z,4.55
2023-05-07T23:19:55.287Z,5.00
2023-05-07T23:22:22.800Z,4.90
2023-05-07T23:24:50.238Z,5.43
2023-05-07T23:27:17.895Z,5.75
2023-05-07T23:29:46.797Z,5.35
2023-05-07T23:32:14.072Z,5.10
2023-05-07T23:34:41.395Z,5.15
2023-05-07T23:37:11.884Z,4.63
2023-05-07T23:39:39.297Z,5.05
2023-05-07T23:42:06.859Z,6.15
2023-05-07T23:44:34.265Z,6.03
2023-05-07T23:47:01.534Z,5.20
2023-05-07T23:49:28.811Z,5.78
2023-05-07T23:51:56.114Z,5.95
2023-05-07T23:54:23.423Z,5.90
2023-05-07T23:56:50.849Z,5.70
2023-05-07T23:59:18.346Z,5.20
